createdAt,value
2022-12-08T00:00:05.926Z,8.65
2022-12-08T00:00:43.360Z,8.88
2022-12-08T00:01:17.329Z,8.30
2022-12-08T00:01:49.068Z,8.80
2022-12-08T00:02:21.092Z,9.43
2022-12-08T00:02:53.148Z,9.32
2022-12-08T00:03:25.311Z,8.48
2022-12-08T00:03:59.029Z,8.52
2022-12-08T00:04:50.545Z,8.35
2022-12-08T00:06:56.079Z,7.18
2022-12-08T00:07:46.224Z,7.35
2022-12-08T00:08:36.121Z,7.55
2022-12-08T00:09:21.994Z,7.78
2022-12-08T00:09:53.464Z,7.65
2022-12-08T00:10:48.519Z,8.75
2022-12-08T00:11:17.203Z,8.98
2022-12-08T00:11:57.522Z,9.32
2022-12-08T00:12:28.973Z,8.38
2022-12-08T00:13:00.433Z,9.40
2022-12-08T00:13:32.000Z,8.85
2022-12-08T00:14:03.574Z,8.00
2022-12-08T00:14:37.591Z,8.70
2022-12-08T00:15:09.411Z,9.50
2022-12-08T00:15:40.924Z,9.02
2022-12-08T00:16:12.573Z,10.25
2022-12-08T00:16:44.184Z,9.60
2022-12-08T00:17:16.629Z,9.35
2022-12-08T00:17:48.132Z,9.95
2022-12-08T00:18:19.626Z,9.70
2022-12-08T00:18:51.096Z,9.60
2022-12-08T00:19:23.417Z,10.63
2022-12-08T00:19:54.869Z,9.15
2022-12-08T00:20:26.365Z,9.38
2022-12-08T00:20:58.621Z,9.93
2022-12-08T00:21:30.103Z,10.02
2022-12-08T00:22:01.974Z,10.73
2022-12-08T00:22:33.483Z,10.93
2022-12-08T00:23:04.976Z,9.60
2022-12-08T00:23:36.477Z,10.50
2022-12-08T00:24:08.250Z,9.50
2022-12-08T00:24:40.971Z,9.93
2022-12-08T00:25:12.595Z,9.43
2022-12-08T00:25:44.069Z,10.05
2022-12-08T00:26:15.548Z,9.43
2022-12-08T00:26:47.285Z,12.95
2022-12-08T00:27:18.779Z,10.35
2022-12-08T00:27:50.282Z,10.88
2022-12-08T00:28:22.010Z,10.45
2022-12-08T00:28:53.479Z,11.40
2022-12-08T00:29:25.718Z,12.45
2022-12-08T00:29:57.218Z,10.02
2022-12-08T00:30:28.760Z,10.13
2022-12-08T00:31:00.916Z,10.98
2022-12-08T00:31:32.546Z,11.20
2022-12-08T00:32:04.743Z,8.95
2022-12-08T00:32:37.647Z,10.27
2022-12-08T00:33:10.111Z,11.48
2022-12-08T00:33:41.571Z,9.55
2022-12-08T00:34:14.280Z,10.70
2022-12-08T00:34:45.724Z,9.32
2022-12-08T00:35:17.186Z,10.40
2022-12-08T00:35:48.737Z,10.70
2022-12-08T00:36:20.438Z,10.80
2022-12-08T00:36:51.951Z,10.85
2022-12-08T00:37:23.511Z,10.85
2022-12-08T00:38:00.449Z,10.75
2022-12-08T00:38:32.489Z,9.75
2022-12-08T00:39:04.133Z,10.38
2022-12-08T00:39:35.629Z,9.90
2022-12-08T00:40:07.890Z,10.35
2022-12-08T00:40:44.451Z,10.45
2022-12-08T00:41:18.022Z,10.73
2022-12-08T00:42:09.259Z,9.43
2022-12-08T00:42:40.769Z,11.02
2022-12-08T00:43:12.892Z,10.40
2022-12-08T00:43:44.630Z,10.50
2022-12-08T00:44:18.899Z,10.68
2022-12-08T00:44:51.147Z,10.43
2022-12-08T00:45:22.947Z,12.38
2022-12-08T00:45:54.507Z,10.77
2022-12-08T00:46:26.022Z,12.50
2022-12-08T00:46:57.607Z,12.45
2022-12-08T00:47:29.107Z,12.23
2022-12-08T00:48:00.626Z,11.82
2022-12-08T00:48:32.260Z,11.98
2022-12-08T00:49:05.315Z,12.90
2022-12-08T00:49:36.888Z,11.48
2022-12-08T00:50:08.929Z,10.30
2022-12-08T00:50:40.401Z,11.43
2022-12-08T00:51:11.851Z,10.48
2022-12-08T00:51:43.893Z,11.25
2022-12-08T00:52:15.376Z,11.82
2022-12-08T00:52:46.893Z,11.13
2022-12-08T00:53:18.519Z,12.23
2022-12-08T00:53:50.075Z,11.48
2022-12-08T00:54:23.045Z,13.25
2022-12-08T00:54:54.589Z,12.93
2022-12-08T00:55:26.611Z,11.38
2022-12-08T00:55:58.243Z,11.90
2022-12-08T00:56:29.996Z,12.77
2022-12-08T00:57:01.533Z,11.68
2022-12-08T00:57:33.008Z,12.27
2022-12-08T00:58:04.533Z,12.13
2022-12-08T00:58:36.011Z,12.85
2022-12-08T00:59:07.752Z,12.32
2022-12-08T00:59:39.896Z,11.95
2022-12-08T01:00:11.998Z,12.23
2022-12-08T01:00:44.006Z,12.10
2022-12-08T01:01:15.690Z,12.02
2022-12-08T01:01:47.534Z,12.15
2022-12-08T01:02:19.077Z,11.05
2022-12-08T01:02:50.639Z,12.95
2022-12-08T01:03:22.304Z,13.20
2022-12-08T01:03:54.071Z,12.88
2022-12-08T01:04:25.580Z,11.55
2022-12-08T01:04:57.228Z,11.77
2022-12-08T01:05:28.684Z,11.90
2022-12-08T01:06:03.733Z,12.20
2022-12-08T01:06:36.140Z,11.93
2022-12-08T01:07:07.914Z,12.07
2022-12-08T01:07:39.437Z,13.07
2022-12-08T01:08:11.028Z,12.45
2022-12-08T01:08:42.965Z,12.18
2022-12-08T01:09:15.474Z,12.65
2022-12-08T01:09:47.199Z,11.75
2022-12-08T01:10:18.689Z,12.00
2022-12-08T01:10:50.206Z,13.43
2022-12-08T01:11:21.653Z,12.60
2022-12-08T01:11:53.302Z,12.05
2022-12-08T01:12:25.089Z,11.85
2022-12-08T01:12:57.166Z,12.32
2022-12-08T01:13:28.653Z,12.45
2022-12-08T01:14:00.189Z,12.20
2022-12-08T01:14:31.641Z,11.77
2022-12-08T01:15:03.908Z,12.20
2022-12-08T01:15:35.496Z,12.38
2022-12-08T01:16:07.698Z,13.75
2022-12-08T01:16:41.435Z,12.48
2022-12-08T01:17:13.150Z,12.32
2022-12-08T01:17:44.690Z,11.60
2022-12-08T01:18:16.148Z,12.02
2022-12-08T01:18:47.682Z,12.73
2022-12-08T01:19:19.252Z,12.85
2022-12-08T01:19:51.221Z,12.05
2022-12-08T01:20:22.748Z,13.18
2022-12-08T01:20:54.249Z,12.40
2022-12-08T01:21:26.646Z,11.82
2022-12-08T01:21:59.518Z,12.80
2022-12-08T01:22:31.072Z,12.18
2022-12-08T01:23:02.621Z,13.88
2022-12-08T01:23:34.850Z,12.98
2022-12-08T01:24:06.670Z,11.80
2022-12-08T01:24:38.164Z,12.98
2022-12-08T01:25:10.337Z,12.32
2022-12-08T01:25:41.844Z,12.40
2022-12-08T01:26:14.894Z,13.95
2022-12-08T01:26:46.953Z,14.80
2022-12-08T01:27:18.427Z,13.55
2022-12-08T01:27:52.340Z,13.30
2022-12-08T01:28:23.833Z,15.20
2022-12-08T01:28:55.509Z,14.23
2022-12-08T01:29:27.744Z,12.57
2022-12-08T01:29:59.250Z,14.15
2022-12-08T01:30:30.942Z,13.65
2022-12-08T01:31:02.737Z,14.50
2022-12-08T01:31:34.405Z,13.23
2022-12-08T01:32:05.969Z,13.13
2022-12-08T01:32:37.730Z,12.73
2022-12-08T01:33:09.181Z,12.60
2022-12-08T01:33:41.185Z,14.15
2022-12-08T01:34:12.788Z,13.95
2022-12-08T01:34:44.282Z,12.73
2022-12-08T01:35:15.823Z,12.85
2022-12-08T01:35:47.279Z,15.48
2022-12-08T01:36:27.279Z,14.30
2022-12-08T01:36:58.754Z,13.32
2022-12-08T01:37:30.252Z,13.27
2022-12-08T01:38:01.910Z,13.60
2022-12-08T01:38:33.581Z,14.18
2022-12-08T01:39:07.580Z,13.10
2022-12-08T01:39:41.156Z,15.10
2022-12-08T01:40:12.684Z,12.63
2022-12-08T01:40:44.445Z,12.98
2022-12-08T01:41:17.886Z,11.85
2022-12-08T01:41:50.164Z,13.15
2022-12-08T01:42:22.978Z,12.50
2022-12-08T01:42:54.463Z,12.20
2022-12-08T01:43:25.992Z,12.45
2022-12-08T01:44:04.522Z,13.15
2022-12-08T01:44:36.160Z,14.00
2022-12-08T01:45:15.507Z,13.05
2022-12-08T01:45:47.374Z,12.77
2022-12-08T01:46:19.131Z,13.32
2022-12-08T01:46:52.702Z,13.50
2022-12-08T01:47:28.962Z,13.95
2022-12-08T01:48:03.568Z,12.40
2022-12-08T01:48:35.384Z,13.10
2022-12-08T01:49:26.311Z,12.63
2022-12-08T01:49:58.074Z,13.70
2022-12-08T01:50:30.191Z,12.63
2022-12-08T01:51:01.855Z,12.57
2022-12-08T01:51:38.339Z,13.15
2022-12-08T01:52:16.088Z,12.30
2022-12-08T01:52:51.896Z,13.23
2022-12-08T01:53:26.907Z,13.57
2022-12-08T01:53:58.410Z,12.02
2022-12-08T01:54:34.842Z,13.43
2022-12-08T01:55:10.809Z,12.20
2022-12-08T01:55:48.647Z,11.88
2022-12-08T01:56:27.505Z,12.75
2022-12-08T01:57:03.577Z,12.05
2022-12-08T01:57:40.096Z,11.68
2022-12-08T01:58:15.905Z,11.27
2022-12-08T01:58:50.139Z,10.68
2022-12-08T01:59:22.314Z,10.18
2022-12-08T02:00:04.454Z,9.55
2022-12-08T02:00:38.252Z,10.63
2022-12-08T02:01:10.797Z,11.55
2022-12-08T02:01:42.458Z,10.40
2022-12-08T02:02:14.132Z,11.27
2022-12-08T02:02:51.432Z,10.35
2022-12-08T02:03:45.506Z,10.35
2022-12-08T02:04:17.218Z,9.90
2022-12-08T02:04:48.693Z,11.15
2022-12-08T02:05:22.574Z,10.00
2022-12-08T02:05:54.113Z,9.85
2022-12-08T02:06:27.953Z,10.73
2022-12-08T02:07:03.626Z,9.93
2022-12-08T02:07:38.053Z,9.88
2022-12-08T02:08:11.449Z,10.60
2022-12-08T02:08:43.610Z,10.00
2022-12-08T02:09:15.508Z,9.48
2022-12-08T02:09:47.107Z,9.52
2022-12-08T02:10:21.715Z,9.27
2022-12-08T02:10:53.401Z,9.48
2022-12-08T02:11:24.952Z,9.57
2022-12-08T02:11:58.038Z,9.45
2022-12-08T02:12:29.809Z,9.25
2022-12-08T02:13:02.057Z,9.40
2022-12-08T02:13:33.592Z,9.07
2022-12-08T02:14:08.297Z,10.43
2022-12-08T02:14:40.046Z,9.20
2022-12-08T02:15:11.709Z,8.10
2022-12-08T02:15:55.018Z,9.60
2022-12-08T02:16:35.233Z,8.85
2022-12-08T02:17:25.087Z,9.05
2022-12-08T02:18:08.459Z,6.82
2022-12-08T02:18:57.700Z,6.85
2022-12-08T02:20:08.451Z,6.82
2022-12-08T02:21:00.585Z,7.50
2022-12-08T02:21:52.288Z,7.80
2022-12-08T02:22:44.658Z,7.72
2022-12-08T02:23:27.418Z,7.47
2022-12-08T02:24:08.316Z,9.32
2022-12-08T02:25:01.397Z,7.80
2022-12-08T02:25:39.759Z,7.85
2022-12-08T02:26:19.235Z,7.25
2022-12-08T02:27:11.584Z,7.40
2022-12-08T02:28:16.304Z,7.25
2022-12-08T02:29:19.854Z,7.43
2022-12-08T02:30:24.808Z,7.43
2022-12-08T02:31:11.857Z,8.70
2022-12-08T02:32:15.642Z,8.20
2022-12-08T02:33:10.677Z,8.13
2022-12-08T02:33:54.329Z,7.47
2022-12-08T02:34:41.064Z,8.52
2022-12-08T02:35:36.613Z,7.30
2022-12-08T02:36:27.297Z,7.32
2022-12-08T02:37:38.009Z,7.57
2022-12-08T02:38:21.660Z,8.27
2022-12-08T02:39:20.964Z,8.80
2022-12-08T02:40:13.611Z,8.88
2022-12-08T02:40:53.088Z,8.02
2022-12-08T02:41:56.841Z,8.70
2022-12-08T02:42:34.958Z,8.70
2022-12-08T02:43:14.613Z,10.00
2022-12-08T02:43:57.339Z,9.48
2022-12-08T02:44:43.833Z,10.00
2022-12-08T02:45:22.451Z,8.35
2022-12-08T02:45:58.962Z,10.13
2022-12-08T02:46:37.435Z,10.35
2022-12-08T02:47:12.822Z,10.07
2022-12-08T02:47:45.009Z,10.98
2022-12-08T02:48:16.575Z,10.98
2022-12-08T02:48:48.529Z,10.38
2022-12-08T02:49:20.032Z,10.25
2022-12-08T02:49:52.289Z,11.70
2022-12-08T02:50:23.780Z,10.90
2022-12-08T02:50:55.709Z,10.90
2022-12-08T02:51:27.179Z,11.48
2022-12-08T02:52:13.421Z,10.48
2022-12-08T02:52:46.929Z,10.88
2022-12-08T02:53:18.440Z,12.35
2022-12-08T02:53:50.003Z,11.15
2022-12-08T02:54:21.472Z,11.10
2022-12-08T02:55:06.962Z,11.02
2022-12-08T02:55:57.951Z,10.32
2022-12-08T02:56:52.283Z,10.90
2022-12-08T02:57:45.229Z,10.00
2022-12-08T02:58:23.888Z,10.63
2022-12-08T02:59:12.366Z,11.32
2022-12-08T03:00:22.186Z,10.68
2022-12-08T03:01:12.390Z,11.55
2022-12-08T03:01:51.303Z,10.07
2022-12-08T03:02:34.755Z,11.18
2022-12-08T03:03:12.361Z,11.15
2022-12-08T03:03:52.961Z,11.77
2022-12-08T03:04:45.158Z,11.25
2022-12-08T03:05:47.825Z,12.40
2022-12-08T03:06:28.841Z,11.57
2022-12-08T03:07:44.427Z,10.20
2022-12-08T03:08:36.884Z,10.82
2022-12-08T03:09:17.099Z,11.40
2022-12-08T03:09:56.673Z,11.68
2022-12-08T03:10:46.540Z,11.93
2022-12-08T03:11:24.806Z,11.23
2022-12-08T03:12:02.889Z,11.13
2022-12-08T03:12:40.205Z,12.80
2022-12-08T03:13:14.156Z,12.13
2022-12-08T03:13:52.021Z,11.52
2022-12-08T03:14:24.085Z,12.05
2022-12-08T03:14:57.524Z,11.73
2022-12-08T03:15:30.001Z,12.07
2022-12-08T03:16:01.897Z,12.65
2022-12-08T03:16:37.494Z,12.18
2022-12-08T03:17:09.212Z,12.95
2022-12-08T03:17:44.224Z,12.65
2022-12-08T03:18:17.626Z,12.70
2022-12-08T03:18:53.557Z,13.00
2022-12-08T03:19:28.672Z,11.13
2022-12-08T03:20:04.364Z,11.75
2022-12-08T03:20:36.526Z,11.38
2022-12-08T03:21:09.338Z,11.02
2022-12-08T03:21:42.367Z,12.85
2022-12-08T03:22:16.254Z,11.80
2022-12-08T03:22:48.799Z,11.73
2022-12-08T03:23:22.018Z,11.75
2022-12-08T03:23:55.517Z,11.05
2022-12-08T03:24:27.024Z,12.00
2022-12-08T03:24:58.929Z,11.35
2022-12-08T03:25:32.073Z,11.07
2022-12-08T03:26:18.250Z,12.75
2022-12-08T03:26:57.084Z,10.90
2022-12-08T03:27:30.013Z,10.63
2022-12-08T03:28:01.590Z,9.63
2022-12-08T03:28:33.403Z,11.07
2022-12-08T03:29:05.005Z,11.95
2022-12-08T03:29:36.766Z,10.82
2022-12-08T03:30:09.337Z,10.93
2022-12-08T03:30:43.283Z,11.25
2022-12-08T03:31:16.073Z,10.27
2022-12-08T03:31:58.161Z,11.82
2022-12-08T03:32:40.831Z,11.18
2022-12-08T03:33:19.099Z,10.40
2022-12-08T03:33:52.153Z,10.95
2022-12-08T03:34:26.496Z,10.02
2022-12-08T03:35:00.127Z,10.25
2022-12-08T03:35:34.140Z,10.38
2022-12-08T03:36:08.073Z,9.88
2022-12-08T03:36:39.817Z,9.88
2022-12-08T03:37:11.598Z,9.98
2022-12-08T03:37:43.676Z,9.75
2022-12-08T03:38:16.676Z,11.60
2022-12-08T03:38:52.941Z,10.07
2022-12-08T03:39:24.420Z,10.57
2022-12-08T03:39:56.553Z,10.70
2022-12-08T03:40:28.015Z,10.23
2022-12-08T03:41:18.088Z,10.10
2022-12-08T03:41:49.601Z,9.77
2022-12-08T03:42:21.075Z,9.88
2022-12-08T03:42:52.705Z,9.48
2022-12-08T03:43:24.158Z,9.95
2022-12-08T03:44:01.082Z,10.05
2022-12-08T03:44:32.546Z,9.48
2022-12-08T03:45:04.961Z,11.30
2022-12-08T03:45:36.585Z,9.98
2022-12-08T03:46:08.057Z,9.50
2022-12-08T03:46:39.596Z,10.15
2022-12-08T03:47:11.180Z,9.40
2022-12-08T03:47:42.641Z,9.40
2022-12-08T03:48:14.294Z,10.02
2022-12-08T03:48:45.844Z,9.15
2022-12-08T03:49:17.310Z,10.55
2022-12-08T03:49:48.776Z,9.80
2022-12-08T03:50:20.294Z,9.20
2022-12-08T03:50:51.796Z,9.90
2022-12-08T03:51:24.456Z,8.65
2022-12-08T03:51:55.993Z,10.55
2022-12-08T03:52:27.564Z,9.82
2022-12-08T03:52:59.049Z,10.10
2022-12-08T03:53:30.542Z,9.13
2022-12-08T03:54:02.153Z,10.00
2022-12-08T03:54:33.653Z,9.13
2022-12-08T03:55:05.620Z,8.80
2022-12-08T03:55:37.080Z,9.27
2022-12-08T03:56:27.004Z,8.95
2022-12-08T03:56:58.441Z,9.85
2022-12-08T03:57:29.928Z,9.38
2022-12-08T03:58:01.401Z,9.32
2022-12-08T03:58:37.267Z,10.30
2022-12-08T03:59:10.562Z,8.93
2022-12-08T03:59:42.029Z,9.40
2022-12-08T04:00:15.919Z,10.48
2022-12-08T04:00:47.381Z,9.43
2022-12-08T04:01:18.882Z,10.10
2022-12-08T04:01:50.592Z,8.98
2022-12-08T04:02:22.432Z,9.23
2022-12-08T04:02:54.241Z,8.77
2022-12-08T04:03:25.912Z,8.65
2022-12-08T04:03:57.448Z,9.55
2022-12-08T04:04:29.036Z,9.43
2022-12-08T04:05:00.489Z,9.43
2022-12-08T04:05:32.049Z,9.65
2022-12-08T04:06:03.659Z,8.90
2022-12-08T04:06:35.229Z,9.77
2022-12-08T04:07:06.698Z,9.48
2022-12-08T04:07:38.245Z,9.85
2022-12-08T04:08:09.862Z,10.10
2022-12-08T04:08:41.414Z,10.50
2022-12-08T04:09:13.103Z,9.00
2022-12-08T04:09:45.462Z,9.35
2022-12-08T04:10:16.959Z,10.07
2022-12-08T04:10:48.477Z,11.02
2022-12-08T04:11:20.401Z,9.30
2022-12-08T04:11:51.860Z,11.40
2022-12-08T04:12:23.555Z,8.57
2022-12-08T04:12:56.487Z,9.82
2022-12-08T04:13:28.144Z,9.93
2022-12-08T04:13:59.742Z,9.43
2022-12-08T04:14:31.209Z,9.73
2022-12-08T04:15:02.885Z,9.93
2022-12-08T04:15:34.384Z,10.18
2022-12-08T04:16:06.603Z,9.30
2022-12-08T04:16:38.245Z,10.40
2022-12-08T04:17:09.748Z,9.25
2022-12-08T04:17:41.205Z,9.23
2022-12-08T04:18:13.294Z,9.93
2022-12-08T04:18:45.148Z,10.75
2022-12-08T04:19:16.704Z,9.93
2022-12-08T04:19:48.151Z,11.00
2022-12-08T04:20:19.618Z,10.98
2022-12-08T04:20:51.240Z,10.50
2022-12-08T04:21:22.835Z,10.52
2022-12-08T04:21:54.462Z,10.82
2022-12-08T04:22:25.962Z,11.60
2022-12-08T04:22:57.640Z,11.10
2022-12-08T04:23:29.263Z,10.45
2022-12-08T04:24:01.522Z,9.00
2022-12-08T04:24:33.151Z,10.60
2022-12-08T04:25:05.120Z,10.55
2022-12-08T04:25:37.181Z,11.05
2022-12-08T04:26:09.166Z,10.52
2022-12-08T04:26:40.669Z,10.23
2022-12-08T04:27:12.177Z,11.20
2022-12-08T04:27:43.645Z,10.32
2022-12-08T04:28:15.185Z,11.38
2022-12-08T04:28:46.698Z,10.82
2022-12-08T04:29:18.376Z,12.20
2022-12-08T04:29:49.849Z,13.15
2022-12-08T04:30:21.428Z,13.30
2022-12-08T04:30:52.957Z,13.27
2022-12-08T04:31:24.632Z,12.85
2022-12-08T04:31:56.272Z,11.93
2022-12-08T04:32:27.953Z,13.18
2022-12-08T04:32:59.432Z,12.32
2022-12-08T04:33:30.963Z,12.68
2022-12-08T04:34:02.461Z,13.20
2022-12-08T04:34:33.982Z,13.38
2022-12-08T04:35:05.801Z,13.02
2022-12-08T04:35:37.294Z,13.15
2022-12-08T04:36:09.228Z,13.15
2022-12-08T04:36:40.678Z,13.90
2022-12-08T04:37:12.655Z,11.70
2022-12-08T04:37:44.560Z,11.68
2022-12-08T04:38:16.185Z,12.43
2022-12-08T04:38:47.692Z,13.60
2022-12-08T04:39:19.143Z,14.40
2022-12-08T04:39:50.608Z,13.77
2022-12-08T04:40:22.115Z,13.52
2022-12-08T04:40:53.614Z,13.38
2022-12-08T04:41:25.078Z,12.93
2022-12-08T04:41:56.712Z,14.05
2022-12-08T04:42:28.294Z,14.00
2022-12-08T04:42:59.889Z,14.35
2022-12-08T04:43:31.374Z,13.52
2022-12-08T04:44:02.850Z,14.77
2022-12-08T04:44:34.333Z,13.80
2022-12-08T04:45:06.758Z,13.95
2022-12-08T04:45:42.024Z,14.80
2022-12-08T04:46:13.684Z,14.48
2022-12-08T04:46:45.293Z,13.13
2022-12-08T04:47:17.005Z,13.88
2022-12-08T04:47:48.484Z,13.93
2022-12-08T04:48:20.043Z,13.68
2022-12-08T04:48:51.511Z,14.55
2022-12-08T04:49:23.597Z,13.50
2022-12-08T04:49:55.748Z,14.40
2022-12-08T04:50:27.745Z,14.70
2022-12-08T04:50:59.194Z,14.25
2022-12-08T04:51:30.797Z,13.13
2022-12-08T04:52:02.367Z,13.65
2022-12-08T04:52:34.140Z,13.73
2022-12-08T04:53:05.666Z,13.05
2022-12-08T04:53:39.913Z,13.93
2022-12-08T04:54:13.525Z,13.05
2022-12-08T04:54:44.993Z,13.38
2022-12-08T04:55:16.663Z,14.40
2022-12-08T04:55:49.628Z,14.30
2022-12-08T04:56:21.201Z,13.73
2022-12-08T04:56:52.810Z,12.68
2022-12-08T04:57:24.333Z,12.73
2022-12-08T04:57:55.871Z,12.82
2022-12-08T04:58:27.390Z,13.35
2022-12-08T04:58:59.408Z,12.68
2022-12-08T04:59:30.984Z,13.23
2022-12-08T05:00:03.949Z,13.10
2022-12-08T05:00:35.658Z,13.82
2022-12-08T05:01:07.328Z,12.63
2022-12-08T05:01:39.092Z,12.68
2022-12-08T05:02:10.978Z,13.10
2022-12-08T05:02:42.834Z,12.25
2022-12-08T05:03:15.102Z,14.15
2022-12-08T05:03:46.533Z,11.98
2022-12-08T05:04:18.173Z,12.60
2022-12-08T05:04:49.650Z,12.38
2022-12-08T05:05:21.185Z,12.00
2022-12-08T05:05:52.726Z,13.48
2022-12-08T05:06:24.498Z,11.70
2022-12-08T05:06:56.066Z,12.98
2022-12-08T05:07:27.757Z,11.60
2022-12-08T05:07:59.289Z,11.43
2022-12-08T05:08:31.240Z,12.23
2022-12-08T05:09:02.823Z,11.80
2022-12-08T05:09:34.381Z,10.80
2022-12-08T05:10:07.015Z,11.40
2022-12-08T05:10:38.942Z,12.23
2022-12-08T05:11:11.580Z,12.50
2022-12-08T05:11:48.504Z,12.65
2022-12-08T05:12:20.751Z,11.88
2022-12-08T05:12:52.329Z,12.38
2022-12-08T05:13:23.823Z,11.23
2022-12-08T05:13:55.318Z,11.57
2022-12-08T05:14:26.817Z,11.07
2022-12-08T05:14:58.304Z,11.73
2022-12-08T05:15:29.765Z,11.48
2022-12-08T05:16:08.649Z,11.45
2022-12-08T05:16:40.215Z,11.63
2022-12-08T05:17:11.871Z,11.20
2022-12-08T05:17:43.581Z,11.50
2022-12-08T05:18:15.803Z,12.18
2022-12-08T05:18:47.323Z,11.00
2022-12-08T05:19:18.901Z,10.95
2022-12-08T05:19:50.439Z,11.60
2022-12-08T05:20:22.286Z,11.30
2022-12-08T05:20:53.736Z,12.38
2022-12-08T05:21:25.226Z,11.73
2022-12-08T05:21:56.697Z,10.88
2022-12-08T05:22:28.168Z,10.90
2022-12-08T05:22:59.710Z,10.38
2022-12-08T05:23:31.262Z,10.63
2022-12-08T05:24:02.923Z,11.25
2022-12-08T05:24:34.604Z,12.02
2022-12-08T05:25:06.533Z,12.35
2022-12-08T05:25:38.148Z,10.85
2022-12-08T05:26:09.642Z,10.88
2022-12-08T05:26:41.103Z,11.32
2022-12-08T05:27:12.573Z,11.45
2022-12-08T05:27:44.139Z,11.27
2022-12-08T05:28:40.204Z,10.95
2022-12-08T05:30:10.424Z,9.25
2022-12-08T05:30:41.979Z,9.00
2022-12-08T05:31:14.973Z,9.80
2022-12-08T05:31:46.541Z,9.05
2022-12-08T05:32:18.029Z,9.50
2022-12-08T05:32:49.477Z,8.80
2022-12-08T05:33:21.023Z,9.00
2022-12-08T05:33:53.242Z,10.13
2022-12-08T05:34:24.845Z,9.40
2022-12-08T05:34:56.349Z,8.50
2022-12-08T05:35:27.834Z,9.80
2022-12-08T05:35:59.428Z,8.25
2022-12-08T05:36:30.912Z,7.78
2022-12-08T05:37:02.498Z,7.88
2022-12-08T05:37:34.031Z,7.82
2022-12-08T05:38:06.027Z,7.97
2022-12-08T05:38:37.615Z,7.40
2022-12-08T05:39:12.779Z,7.82
2022-12-08T05:39:44.262Z,7.95
2022-12-08T05:40:15.939Z,7.45
2022-12-08T05:40:47.517Z,8.93
2022-12-08T05:41:20.952Z,7.90
2022-12-08T05:41:52.478Z,7.03
2022-12-08T05:42:25.155Z,7.03
2022-12-08T05:42:56.909Z,7.55
2022-12-08T05:43:29.004Z,7.22
2022-12-08T05:44:00.464Z,7.47
2022-12-08T05:44:31.977Z,7.40
2022-12-08T05:45:04.373Z,6.90
2022-12-08T05:45:35.923Z,6.32
2022-12-08T05:46:08.262Z,7.13
2022-12-08T05:46:39.800Z,6.63
2022-12-08T05:47:11.274Z,6.40
2022-12-08T05:47:42.824Z,5.72
2022-12-08T05:48:14.475Z,6.30
2022-12-08T05:48:45.986Z,5.78
2022-12-08T05:49:18.193Z,5.65
2022-12-08T05:49:49.926Z,6.40
2022-12-08T05:50:21.394Z,5.22
2022-12-08T05:50:52.912Z,5.30
2022-12-08T05:51:24.620Z,5.63
2022-12-08T05:51:56.060Z,6.35
2022-12-08T05:52:27.564Z,5.28
2022-12-08T05:52:59.034Z,5.70
2022-12-08T05:53:30.767Z,6.78
2022-12-08T05:54:02.561Z,6.20
2022-12-08T05:54:34.091Z,5.55
2022-12-08T05:55:05.989Z,5.28
2022-12-08T05:55:37.484Z,6.20
2022-12-08T05:56:09.244Z,5.55
2022-12-08T05:56:40.799Z,5.30
2022-12-08T05:57:12.426Z,4.63
2022-12-08T05:57:43.892Z,5.45
2022-12-08T05:58:18.191Z,5.55
2022-12-08T05:58:49.717Z,5.05
2022-12-08T05:59:21.293Z,5.07
2022-12-08T05:59:52.854Z,5.72
2022-12-08T06:00:24.315Z,5.57
2022-12-08T06:00:55.776Z,5.60
2022-12-08T06:01:29.402Z,5.03
2022-12-08T06:02:01.002Z,5.15
2022-12-08T06:02:32.702Z,5.68
2022-12-08T06:03:04.497Z,5.38
2022-12-08T06:03:36.413Z,5.25
2022-12-08T06:04:08.858Z,5.30
2022-12-08T06:04:40.580Z,5.25
2022-12-08T06:05:12.141Z,5.22
2022-12-08T06:05:44.993Z,4.55
2022-12-08T06:06:16.602Z,4.82
2022-12-08T06:06:48.224Z,5.38
2022-12-08T06:07:19.682Z,6.05
2022-12-08T06:07:51.206Z,5.10
2022-12-08T06:08:22.766Z,5.53
2022-12-08T06:08:54.652Z,5.30
2022-12-08T06:09:26.157Z,5.43
2022-12-08T06:09:57.646Z,4.95
2022-12-08T06:10:29.361Z,4.82
2022-12-08T06:11:00.957Z,4.78
2022-12-08T06:11:33.632Z,4.68
2022-12-08T06:12:05.442Z,4.45
2022-12-08T06:12:37.020Z,4.53
2022-12-08T06:13:08.634Z,4.07
2022-12-08T06:13:40.118Z,4.22
2022-12-08T06:14:12.327Z,3.75
2022-12-08T06:14:43.869Z,3.42
2022-12-08T06:15:15.465Z,4.15
2022-12-08T06:15:46.960Z,4.55
2022-12-08T06:16:19.314Z,4.18
2022-12-08T06:16:50.919Z,4.28
2022-12-08T06:17:22.399Z,4.43
2022-12-08T06:17:53.902Z,3.97
2022-12-08T06:18:29.691Z,3.92
2022-12-08T06:19:04.125Z,3.58
2022-12-08T06:19:35.760Z,3.38
2022-12-08T06:20:08.072Z,3.50
2022-12-08T06:20:39.552Z,3.83
2022-12-08T06:21:13.142Z,3.45
2022-12-08T06:21:44.718Z,3.65
2022-12-08T06:22:16.292Z,3.63
2022-12-08T06:22:47.767Z,3.75
2022-12-08T06:23:19.223Z,3.45
2022-12-08T06:23:52.994Z,3.72
2022-12-08T06:24:24.562Z,4.88
2022-12-08T06:24:56.130Z,4.03
2022-12-08T06:25:27.726Z,4.28
2022-12-08T06:26:13.105Z,3.58
2022-12-08T06:26:44.605Z,3.58
2022-12-08T06:27:34.934Z,2.95
2022-12-08T06:28:07.228Z,4.20
2022-12-08T06:28:39.346Z,3.35
2022-12-08T06:29:10.808Z,3.70
2022-12-08T06:29:42.543Z,3.38
2022-12-08T06:30:14.669Z,3.50
2022-12-08T06:30:46.113Z,3.72
2022-12-08T06:31:19.901Z,3.63
2022-12-08T06:31:52.801Z,3.35
2022-12-08T06:32:27.442Z,3.63
2022-12-08T06:33:00.054Z,4.03
2022-12-08T06:33:31.544Z,3.67
2022-12-08T06:34:03.903Z,3.20
2022-12-08T06:34:35.367Z,3.50
2022-12-08T06:35:07.232Z,3.47
2022-12-08T06:35:38.685Z,3.42
2022-12-08T06:36:12.442Z,3.03
2022-12-08T06:36:43.925Z,3.65
2022-12-08T06:37:15.403Z,3.28
2022-12-08T06:37:46.860Z,3.05
2022-12-08T06:38:18.691Z,3.50
2022-12-08T06:38:50.760Z,3.25
2022-12-08T06:39:22.456Z,3.25
2022-12-08T06:39:54.038Z,2.88
2022-12-08T06:40:25.500Z,3.50
2022-12-08T06:40:58.253Z,3.30
2022-12-08T06:41:29.749Z,3.63
2022-12-08T06:42:19.873Z,3.47
2022-12-08T06:42:51.366Z,2.83
2022-12-08T06:43:23.039Z,3.53
2022-12-08T06:43:57.737Z,3.67
2022-12-08T06:44:29.261Z,3.75
2022-12-08T06:45:00.755Z,2.92
2022-12-08T06:45:32.367Z,3.05
2022-12-08T06:46:06.873Z,3.03
2022-12-08T06:46:38.382Z,3.08
2022-12-08T06:47:09.834Z,3.17
2022-12-08T06:47:41.480Z,3.85
2022-12-08T06:48:13.092Z,2.95
2022-12-08T06:48:44.867Z,3.65
2022-12-08T06:49:16.321Z,3.72
2022-12-08T06:49:48.133Z,3.70
2022-12-08T06:50:19.826Z,3.80
2022-12-08T06:50:51.558Z,2.67
2022-12-08T06:51:23.613Z,3.38
2022-12-08T06:51:55.165Z,3.22
2022-12-08T06:52:26.617Z,3.30
2022-12-08T06:53:04.786Z,3.55
2022-12-08T06:53:37.925Z,3.72
2022-12-08T06:54:09.470Z,3.50
2022-12-08T06:54:40.987Z,3.50
2022-12-08T06:55:29.224Z,3.78
2022-12-08T06:56:35.521Z,2.80
2022-12-08T06:57:07.012Z,3.28
2022-12-08T06:57:38.465Z,2.90
2022-12-08T06:58:11.017Z,2.67
2022-12-08T06:58:46.155Z,2.90
2022-12-08T06:59:22.101Z,2.92
2022-12-08T06:59:53.591Z,2.83
2022-12-08T07:00:25.238Z,3.05
2022-12-08T07:00:56.872Z,3.75
2022-12-08T07:01:28.404Z,2.95
2022-12-08T07:02:00.200Z,3.25
2022-12-08T07:02:31.916Z,2.75
2022-12-08T07:03:03.480Z,2.90
2022-12-08T07:03:36.094Z,3.17
2022-12-08T07:04:07.538Z,3.13
2022-12-08T07:04:39.014Z,3.22
2022-12-08T07:05:10.485Z,2.70
2022-12-08T07:05:41.948Z,3.10
2022-12-08T07:06:18.836Z,3.22
2022-12-08T07:06:50.409Z,3.65
2022-12-08T07:07:21.876Z,3.60
2022-12-08T07:07:53.485Z,4.00
2022-12-08T07:08:25.101Z,3.45
2022-12-08T07:08:56.603Z,3.10
2022-12-08T07:09:28.498Z,3.35
2022-12-08T07:10:00.003Z,3.55
2022-12-08T07:10:31.533Z,3.60
2022-12-08T07:11:08.236Z,3.38
2022-12-08T07:11:39.828Z,3.28
2022-12-08T07:12:11.295Z,3.42
2022-12-08T07:12:42.753Z,3.17
2022-12-08T07:13:14.238Z,3.17
2022-12-08T07:13:45.680Z,3.05
2022-12-08T07:14:17.404Z,3.22
2022-12-08T07:14:48.858Z,3.40
2022-12-08T07:15:20.809Z,3.40
2022-12-08T07:15:52.284Z,3.20
2022-12-08T07:16:24.282Z,2.97
2022-12-08T07:16:56.146Z,3.75
2022-12-08T07:17:27.701Z,3.38
2022-12-08T07:18:00.218Z,3.20
2022-12-08T07:18:32.058Z,2.97
2022-12-08T07:19:03.616Z,3.58
2022-12-08T07:19:35.082Z,3.40
2022-12-08T07:20:07.579Z,3.92
2022-12-08T07:20:39.345Z,3.08
2022-12-08T07:21:13.161Z,3.38
2022-12-08T07:21:44.936Z,3.45
2022-12-08T07:22:16.489Z,3.45
2022-12-08T07:22:52.291Z,3.55
2022-12-08T07:23:23.773Z,3.40
2022-12-08T07:23:57.813Z,3.33
2022-12-08T07:24:29.565Z,3.30
2022-12-08T07:25:01.241Z,3.10
2022-12-08T07:25:32.708Z,3.70
2022-12-08T07:26:06.062Z,3.70
2022-12-08T07:26:37.714Z,3.50